createdAt,value
2023-04-24T00:01:35.145Z,97697.94
2023-04-24T00:04:02.767Z,97705.56
2023-04-24T00:06:34.702Z,97695.94
2023-04-24T00:09:02.048Z,97707.25
2023-04-24T00:11:29.122Z,97700.56
2023-04-24T00:13:55.849Z,97689.84
2023-04-24T00:16:23.117Z,97702.09
2023-04-24T00:18:49.866Z,97697.94
2023-04-24T00:21:18.669Z,97696.25
2023-04-24T00:23:45.565Z,97708.22
2023-04-24T00:26:12.073Z,97698.03
2023-04-24T00:28:38.775Z,97679.50
2023-04-24T00:31:05.363Z,97693.44
2023-04-24T00:33:32.178Z,97697.94
2023-04-24T00:35:58.913Z,97688.56
2023-04-24T00:38:25.529Z,97692.63
2023-04-24T00:40:52.096Z,97680.50
2023-04-24T00:43:18.826Z,97683.16
2023-04-24T00:45:45.518Z,97687.47
2023-04-24T00:48:12.858Z,97681.34
2023-04-24T00:50:40.425Z,97671.16
2023-04-24T00:53:07.210Z,97676.03
2023-04-24T00:55:33.768Z,97668.38
2023-04-24T00:58:00.640Z,97667.53
2023-04-24T01:02:46.281Z,97666.44
2023-04-24T01:05:14.532Z,97664.19
2023-04-24T01:07:44.996Z,97662.09
2023-04-24T01:10:13.965Z,97663.94
2023-04-24T01:12:40.560Z,97656.81
2023-04-24T01:15:08.549Z,97652.22
2023-04-24T01:17:35.794Z,97638.72
2023-04-24T01:20:03.464Z,97660.56
2023-04-24T01:22:31.454Z,97651.81
2023-04-24T01:24:58.531Z,97657.94
2023-04-24T01:27:25.062Z,97616.84
2023-04-24T01:29:52.879Z,97655.28
2023-04-24T01:32:20.835Z,97644.13
2023-04-24T01:34:48.125Z,97643.88
2023-04-24T01:37:14.711Z,97643.00
2023-04-24T01:39:41.713Z,97633.44
2023-04-24T01:42:08.529Z,97620.06
2023-04-24T01:46:51.904Z,97630.91
2023-04-24T01:49:18.751Z,97628.41
2023-04-24T01:51:45.736Z,97635.38
2023-04-24T01:54:12.861Z,97628.41
2023-04-24T01:56:43.520Z,97620.47
2023-04-24T01:59:12.075Z,97610.44
2023-04-24T02:01:39.482Z,97617.00
2023-04-24T02:04:08.726Z,97613.50
2023-04-24T02:06:36.334Z,97613.34
2023-04-24T02:09:04.138Z,97614.34
2023-04-24T02:11:31.219Z,97609.16
2023-04-24T02:13:58.624Z,97605.69
2023-04-24T02:16:25.817Z,97590.38
2023-04-24T02:18:52.552Z,97606.53
2023-04-24T02:21:19.302Z,97603.88
2023-04-24T02:23:45.866Z,97601.38
2023-04-24T02:26:13.525Z,97600.66
2023-04-24T02:28:40.213Z,97597.91
2023-04-24T02:33:29.775Z,97553.88
2023-04-24T02:35:56.368Z,97573.25
2023-04-24T02:38:23.021Z,97575.22
2023-04-24T02:40:49.653Z,97578.81
2023-04-24T02:43:16.200Z,97573.38
2023-04-24T02:45:42.859Z,97577.00
2023-04-24T02:48:09.393Z,97552.38
2023-04-24T02:50:36.252Z,97571.84
2023-04-24T02:53:02.943Z,97560.97
2023-04-24T02:55:29.802Z,97566.84
2023-04-24T02:57:56.332Z,97564.06
2023-04-24T03:00:23.011Z,97561.44
2023-04-24T03:02:50.612Z,97566.84
2023-04-24T03:05:17.548Z,97563.94
2023-04-24T03:07:44.104Z,97572.13
2023-04-24T03:10:10.927Z,97580.06
2023-04-24T03:12:37.539Z,97560.88
2023-04-24T03:15:04.439Z,97581.06
2023-04-24T03:17:31.062Z,97575.88
2023-04-24T03:19:57.776Z,97545.22
2023-04-24T03:22:24.295Z,97561.53
2023-04-24T03:24:51.001Z,97566.28
2023-04-24T03:27:18.897Z,97565.47
2023-04-24T03:29:57.541Z,97550.28
2023-04-24T03:32:33.200Z,97569.06
2023-04-24T03:35:01.239Z,97560.72
2023-04-24T03:37:27.946Z,97563.06
2023-04-24T03:40:08.081Z,97562.09
2023-04-24T03:42:38.748Z,97557.13
2023-04-24T03:45:07.166Z,97566.56
2023-04-24T03:47:36.306Z,97571.00
2023-04-24T03:50:05.730Z,97553.16
2023-04-24T03:52:33.942Z,97567.41
2023-04-24T03:55:01.019Z,97560.13
2023-04-24T03:57:29.271Z,97550.25
2023-04-24T04:00:11.326Z,97565.72
2023-04-24T04:02:41.484Z,97556.41
2023-04-24T04:05:09.598Z,97556.13
2023-04-24T04:07:36.230Z,97547.63
2023-04-24T04:10:03.326Z,97571.31
2023-04-24T04:12:30.290Z,97553.59
2023-04-24T04:14:57.033Z,97559.31
2023-04-24T04:17:24.329Z,97563.53
2023-04-24T04:19:51.814Z,97561.44
2023-04-24T04:22:18.854Z,97556.41
2023-04-24T04:24:48.939Z,97556.53
2023-04-24T04:27:17.483Z,97546.75
2023-04-24T04:29:51.078Z,97568.50
2023-04-24T04:32:17.746Z,97563.22
2023-04-24T04:34:46.325Z,97559.06
2023-04-24T04:37:14.230Z,97550.81
2023-04-24T04:39:51.958Z,97553.31
2023-04-24T04:42:22.832Z,97560.56
2023-04-24T04:44:51.314Z,97560.44
2023-04-24T04:47:25.469Z,97562.25
2023-04-24T04:49:53.909Z,97561.44
2023-04-24T04:52:26.297Z,97557.78
2023-04-24T04:54:59.124Z,97557.13
2023-04-24T04:57:37.478Z,97567.41
2023-04-24T05:00:05.853Z,97518.69
2023-04-24T05:02:42.757Z,97555.69
2023-04-24T05:05:10.857Z,97563.78
2023-04-24T05:07:38.027Z,97556.81
2023-04-24T05:10:06.244Z,97561.84
2023-04-24T05:12:32.765Z,97556.69
2023-04-24T05:15:01.267Z,97556.53
2023-04-24T05:17:28.546Z,97557.91
2023-04-24T05:19:56.891Z,97565.03
2023-04-24T05:22:24.821Z,97565.72
2023-04-24T05:24:52.656Z,97556.94
2023-04-24T05:27:38.283Z,97563.06
2023-04-24T05:30:11.549Z,97561.28
2023-04-24T05:32:38.202Z,97550.28
2023-04-24T05:35:05.254Z,97556.13
2023-04-24T05:37:32.026Z,97558.47
2023-04-24T05:39:58.719Z,97559.19
2023-04-24T05:42:25.921Z,97562.66
2023-04-24T05:44:53.694Z,97551.09
2023-04-24T05:47:23.002Z,97540.81
2023-04-24T05:49:51.578Z,97553.47
2023-04-24T05:52:18.540Z,97540.81
2023-04-24T05:54:45.898Z,97555.81
2023-04-24T05:57:16.861Z,97554.69
2023-04-24T05:59:52.518Z,97552.75
2023-04-24T06:02:21.092Z,97539.78
2023-04-24T06:04:48.098Z,97546.34
2023-04-24T06:07:15.017Z,97546.19
2023-04-24T06:09:43.845Z,97494.72
2023-04-24T06:12:10.982Z,97538.09
2023-04-24T06:14:56.499Z,97538.09
2023-04-24T06:17:55.756Z,97534.47
2023-04-24T06:20:22.736Z,97512.66
2023-04-24T06:22:49.352Z,97531.69
2023-04-24T06:25:20.042Z,97520.56
2023-04-24T06:27:47.108Z,97512.91
2023-04-24T06:30:13.966Z,97514.00
2023-04-24T06:32:40.911Z,97519.13
2023-04-24T06:35:09.178Z,97516.50
2023-04-24T06:37:35.870Z,97512.72
2023-04-24T06:40:02.499Z,97511.75
2023-04-24T06:42:29.188Z,97481.88
2023-04-24T06:44:56.158Z,97507.31
2023-04-24T06:47:23.200Z,97515.09
2023-04-24T06:49:51.865Z,97494.09
2023-04-24T06:52:18.466Z,97482.81
2023-04-24T06:54:46.044Z,97513.81
2023-04-24T06:57:12.710Z,97496.00
2023-04-24T06:59:39.369Z,97501.56
2023-04-24T07:02:06.191Z,97494.19
2023-04-24T07:04:32.957Z,97499.31
2023-04-24T07:06:59.747Z,97489.00
2023-04-24T07:09:26.979Z,97480.38
2023-04-24T07:11:54.493Z,97487.59
2023-04-24T07:14:21.709Z,97494.53
2023-04-24T07:16:48.370Z,97484.97
2023-04-24T07:19:15.003Z,97480.47
2023-04-24T07:21:41.820Z,97460.91
2023-04-24T07:24:11.861Z,97480.34
2023-04-24T07:26:40.330Z,97484.66
2023-04-24T07:29:07.572Z,97462.53
2023-04-24T07:31:34.668Z,97479.19
2023-04-24T07:34:01.322Z,97480.88
2023-04-24T07:36:28.956Z,97481.56
2023-04-24T07:38:57.094Z,97480.75
2023-04-24T07:41:25.291Z,97481.41
2023-04-24T07:43:52.187Z,97481.56
2023-04-24T07:46:19.160Z,97435.41
2023-04-24T07:48:48.796Z,97483.09
2023-04-24T07:51:16.088Z,97467.91
2023-04-24T07:53:43.454Z,97461.75
2023-04-24T07:56:10.299Z,97453.97
2023-04-24T07:58:39.889Z,97450.50
2023-04-24T08:01:06.661Z,97462.13
2023-04-24T08:03:33.384Z,97460.34
2023-04-24T08:06:00.338Z,97442.53
2023-04-24T08:08:27.118Z,97453.13
2023-04-24T08:10:53.728Z,97449.06
2023-04-24T08:13:20.337Z,97438.63
2023-04-24T08:15:47.248Z,97441.94
2023-04-24T08:18:14.570Z,97445.84
2023-04-24T08:20:41.247Z,97450.31
2023-04-24T08:23:07.815Z,97456.44
2023-04-24T08:25:36.272Z,97449.34
2023-04-24T08:28:04.753Z,97451.00
2023-04-24T08:30:31.398Z,97446.69
2023-04-24T08:32:58.010Z,97451.00
2023-04-24T08:35:24.770Z,97433.47
2023-04-24T08:37:51.417Z,97444.59
2023-04-24T08:40:18.144Z,97424.97
2023-04-24T08:42:45.533Z,97434.84
2023-04-24T08:45:13.605Z,97445.56
2023-04-24T08:47:41.787Z,97445.41
2023-04-24T08:50:10.469Z,97435.78
2023-04-24T08:52:37.787Z,97439.28
2023-04-24T08:55:04.871Z,97426.63
2023-04-24T08:57:32.227Z,97436.75
2023-04-24T09:00:00.203Z,97426.63
2023-04-24T09:02:27.633Z,97438.28
2023-04-24T09:04:54.731Z,97422.00
2023-04-24T09:07:25.673Z,97427.84
2023-04-24T09:09:53.027Z,97427.69
2023-04-24T09:12:20.610Z,97426.88
2023-04-24T09:14:48.919Z,97424.22
2023-04-24T09:17:15.555Z,97416.88
2023-04-24T09:19:42.995Z,97421.41
2023-04-24T09:22:12.043Z,97425.88
2023-04-24T09:24:39.600Z,97411.41
2023-04-24T09:27:06.237Z,97418.75
2023-04-24T09:29:33.942Z,97408.63
2023-04-24T09:32:00.693Z,97414.31
2023-04-24T09:34:28.262Z,97408.16
2023-04-24T09:36:55.694Z,97398.16
2023-04-24T09:39:22.456Z,97403.72
2023-04-24T09:41:54.059Z,97397.44
2023-04-24T09:44:23.085Z,97387.13
2023-04-24T09:46:56.816Z,97386.97
2023-04-24T09:49:27.996Z,97385.00
2023-04-24T09:52:12.530Z,97383.13
2023-04-24T09:54:40.454Z,97371.66
2023-04-24T09:57:10.439Z,97385.16
2023-04-24T09:59:43.697Z,97371.53
2023-04-24T10:02:21.077Z,97380.53
2023-04-24T10:05:00.058Z,97375.19
2023-04-24T10:07:27.707Z,97382.81
2023-04-24T10:09:55.089Z,97391.28
2023-04-24T10:12:22.677Z,97379.03
2023-04-24T10:14:49.918Z,97370.53
2023-04-24T10:17:17.074Z,97373.06
2023-04-24T10:19:44.875Z,97372.75
2023-04-24T10:22:12.171Z,97373.59
2023-04-24T10:24:39.331Z,97370.25
2023-04-24T10:27:07.040Z,97370.78
2023-04-24T10:29:36.752Z,97366.75
2023-04-24T10:32:03.539Z,97375.25
2023-04-24T10:34:30.464Z,97367.28
2023-04-24T10:36:58.496Z,97366.31
2023-04-24T10:39:27.351Z,97354.66
2023-04-24T10:41:57.507Z,97351.34
2023-04-24T10:44:24.302Z,97363.66
2023-04-24T10:46:56.173Z,97358.38
2023-04-24T10:49:31.019Z,97361.00
2023-04-24T10:52:02.547Z,97351.41
2023-04-24T10:54:34.977Z,97349.59
2023-04-24T10:57:23.392Z,97350.41
2023-04-24T10:59:53.172Z,97351.41
2023-04-24T11:02:39.661Z,97347.75
2023-04-24T11:05:07.441Z,97350.41
2023-04-24T11:08:14.741Z,97340.66
2023-04-24T11:10:45.594Z,97341.66
2023-04-24T11:13:15.865Z,97331.66
2023-04-24T11:15:45.914Z,97305.81
2023-04-24T11:18:16.911Z,97299.66
2023-04-24T11:20:45.312Z,97306.34
2023-04-24T11:23:15.906Z,97327.19
2023-04-24T11:25:42.872Z,97336.19
2023-04-24T11:28:17.193Z,97333.53
2023-04-24T11:30:43.874Z,97334.34
2023-04-24T11:33:10.662Z,97329.06
2023-04-24T11:35:41.057Z,97288.63
2023-04-24T11:38:23.285Z,97301.41
2023-04-24T11:40:51.025Z,97316.13
2023-04-24T11:43:20.246Z,97313.78
2023-04-24T11:45:50.230Z,97306.31
2023-04-24T11:48:22.693Z,97331.59
2023-04-24T11:50:49.865Z,97314.63
2023-04-24T11:53:19.400Z,97307.50
2023-04-24T11:55:46.164Z,97313.03
2023-04-24T11:58:12.706Z,97317.34
2023-04-24T12:00:39.303Z,97295.91
2023-04-24T12:03:08.804Z,97313.84
2023-04-24T12:05:36.208Z,97307.75
2023-04-24T12:08:03.159Z,97291.75
2023-04-24T12:10:32.293Z,97292.22
2023-04-24T12:13:00.011Z,97303.41
2023-04-24T12:15:26.855Z,97300.63
2023-04-24T12:17:55.655Z,97299.63
2023-04-24T12:20:27.848Z,97278.84
2023-04-24T12:22:57.458Z,97278.53
2023-04-24T12:25:28.195Z,97279.03
2023-04-24T12:28:03.912Z,97291.84
2023-04-24T12:30:33.459Z,97298.28
2023-04-24T12:33:01.702Z,97269.75
2023-04-24T12:35:29.884Z,97270.56
2023-04-24T12:37:56.505Z,97276.06
2023-04-24T12:40:26.283Z,97281.91
2023-04-24T12:42:53.122Z,97283.75
2023-04-24T12:45:20.511Z,97286.38
2023-04-24T12:47:47.474Z,97294.63
2023-04-24T12:50:16.657Z,97294.34
2023-04-24T12:52:44.184Z,97305.75
2023-04-24T12:55:11.221Z,97269.09
2023-04-24T12:57:40.122Z,97294.34
2023-04-24T13:00:08.854Z,97284.63
2023-04-24T13:02:36.034Z,97291.59
2023-04-24T13:05:03.664Z,97305.75
2023-04-24T13:07:30.448Z,97287.16
2023-04-24T13:09:58.309Z,97268.72
2023-04-24T13:12:25.364Z,97301.47
2023-04-24T13:14:52.066Z,97272.53
2023-04-24T13:17:18.655Z,97311.91
2023-04-24T13:19:46.402Z,97318.00
2023-04-24T13:22:13.989Z,97305.53
2023-04-24T13:24:42.027Z,97319.69
2023-04-24T13:27:10.106Z,97314.56
2023-04-24T13:29:37.749Z,97186.66
2023-04-24T13:32:06.735Z,97241.09
2023-04-24T13:34:33.483Z,97317.03
2023-04-24T13:37:00.407Z,97313.56
2023-04-24T13:39:27.519Z,97314.56
2023-04-24T13:41:54.879Z,97286.78
2023-04-24T13:44:22.754Z,97309.09
2023-04-24T13:46:52.763Z,97303.78
2023-04-24T13:49:19.949Z,97306.88
2023-04-24T13:51:46.859Z,97317.03
2023-04-24T13:54:13.993Z,97314.56
2023-04-24T13:56:41.873Z,97318.88
2023-04-24T13:59:09.514Z,97303.56
2023-04-24T14:01:36.375Z,97321.53
2023-04-24T14:04:03.218Z,97326.81
2023-04-24T14:06:30.031Z,97328.63
2023-04-24T14:08:59.621Z,97316.81
2023-04-24T14:11:27.648Z,97316.13
2023-04-24T14:13:55.470Z,97339.22
2023-04-24T14:16:22.096Z,97318.09
2023-04-24T14:18:48.782Z,97337.41
2023-04-24T14:21:15.411Z,97326.41
2023-04-24T14:23:45.312Z,97331.25
2023-04-24T14:26:12.421Z,97316.44
2023-04-24T14:28:39.360Z,97324.63
2023-04-24T14:31:09.165Z,97330.44
2023-04-24T14:33:38.268Z,97336.56
2023-04-24T14:36:06.513Z,97332.56
2023-04-24T14:38:33.127Z,97339.22
2023-04-24T14:41:07.115Z,97296.03
2023-04-24T14:43:36.262Z,97329.91
2023-04-24T14:46:04.101Z,97339.22
2023-04-24T14:48:31.374Z,97334.34
2023-04-24T14:50:57.987Z,97328.25
2023-04-24T14:53:24.780Z,97341.88
2023-04-24T14:55:51.396Z,97338.38
2023-04-24T14:58:18.039Z,97335.75
2023-04-24T15:00:44.873Z,97341.03
2023-04-24T15:03:11.697Z,97333.91
2023-04-24T15:05:39.113Z,97347.16
2023-04-24T15:08:08.428Z,97336.72
2023-04-24T15:10:34.983Z,97333.25
2023-04-24T15:13:01.658Z,97337.41
2023-04-24T15:15:28.253Z,97338.38
2023-04-24T15:17:54.929Z,97339.22
2023-04-24T15:20:21.723Z,97334.34
2023-04-24T15:22:48.525Z,97320.22
2023-04-24T15:25:15.175Z,97293.72
2023-04-24T15:27:46.290Z,97340.50
2023-04-24T15:30:14.217Z,97295.38
2023-04-24T15:32:41.458Z,97333.53
2023-04-24T15:35:10.191Z,97325.50
2023-04-24T15:37:38.928Z,97339.97
2023-04-24T15:40:08.095Z,97349.00
2023-04-24T15:42:36.162Z,97341.88
2023-04-24T15:45:03.403Z,97331.22
2023-04-24T15:47:30.635Z,97339.38
2023-04-24T15:49:58.434Z,97347.59
2023-04-24T15:52:25.156Z,97333.25
2023-04-24T15:54:52.062Z,97349.00
2023-04-24T15:57:18.671Z,97349.00
2023-04-24T15:59:45.986Z,97333.31
2023-04-24T16:02:19.375Z,97357.75
2023-04-24T16:04:48.595Z,97354.13
2023-04-24T16:07:18.084Z,97351.81
2023-04-24T16:09:47.011Z,97345.97
2023-04-24T16:12:14.640Z,97361.25
2023-04-24T16:14:41.278Z,97361.25
2023-04-24T16:17:07.860Z,97364.72
2023-04-24T16:19:35.115Z,97354.72
2023-04-24T16:22:03.207Z,97362.09
2023-04-24T16:24:30.932Z,97347.09
2023-04-24T16:26:57.814Z,97340.78
2023-04-24T16:29:24.573Z,97345.56
2023-04-24T16:31:51.685Z,97356.94
2023-04-24T16:34:18.337Z,97348.28
2023-04-24T16:36:45.057Z,97352.47
2023-04-24T16:39:15.554Z,97355.97
2023-04-24T16:41:42.408Z,97346.03
2023-04-24T16:44:09.007Z,97348.13
2023-04-24T16:46:35.615Z,97342.84
2023-04-24T16:49:02.234Z,97348.84
2023-04-24T16:51:29.017Z,97356.63
2023-04-24T16:53:55.832Z,97353.16
2023-04-24T16:56:22.691Z,97352.31
2023-04-24T16:58:50.019Z,97350.50
2023-04-24T17:01:16.989Z,97347.00
2023-04-24T17:03:44.069Z,97354.94
2023-04-24T17:06:10.760Z,97349.66
2023-04-24T17:08:37.645Z,97338.16
2023-04-24T17:11:04.422Z,97337.63
2023-04-24T17:13:30.929Z,97355.28
2023-04-24T17:15:57.722Z,97342.63
2023-04-24T17:18:24.668Z,97345.56
2023-04-24T17:20:51.494Z,97351.56
2023-04-24T17:23:18.208Z,97362.31
2023-04-24T17:25:44.849Z,97320.84
2023-04-24T17:28:46.797Z,97355.50
2023-04-24T17:31:16.292Z,97357.28
2023-04-24T17:33:42.928Z,97353.13
2023-04-24T17:36:09.802Z,97360.09
2023-04-24T17:38:37.044Z,97355.78
2023-04-24T17:41:04.047Z,97355.25
2023-04-24T17:43:30.712Z,97363.44
2023-04-24T17:45:59.219Z,97354.56
2023-04-24T17:48:26.932Z,97362.06
2023-04-24T17:50:54.320Z,97347.03
2023-04-24T17:53:21.763Z,97354.28
2023-04-24T17:55:50.263Z,97364.72
2023-04-24T17:58:20.445Z,97363.06
2023-04-24T18:00:47.317Z,97360.53
2023-04-24T18:03:14.273Z,97363.19
2023-04-24T18:05:41.043Z,97370.28
2023-04-24T18:08:07.838Z,97371.41
2023-04-24T18:10:38.078Z,97365.28
2023-04-24T18:13:08.298Z,97357.25
2023-04-24T18:15:35.594Z,97370.56
2023-04-24T18:18:02.754Z,97370.63
2023-04-24T18:20:29.288Z,97376.03
2023-04-24T18:22:55.969Z,97365.34
2023-04-24T18:25:26.597Z,97369.81
2023-04-24T18:27:56.438Z,97374.81
2023-04-24T18:30:24.421Z,97385.09
2023-04-24T18:32:53.330Z,97385.09
2023-04-24T18:35:21.391Z,97385.91
2023-04-24T18:37:48.547Z,97380.56
2023-04-24T18:40:16.072Z,97395.84
2023-04-24T18:42:43.048Z,97401.16
2023-04-24T18:45:13.835Z,97397.66
2023-04-24T18:47:41.593Z,97400.28
2023-04-24T18:50:10.445Z,97400.28
2023-04-24T18:52:37.169Z,97401.97
2023-04-24T18:55:04.748Z,97402.13
2023-04-24T18:57:31.451Z,97364.94
2023-04-24T18:59:57.953Z,97402.41
2023-04-24T19:02:24.964Z,97403.09
2023-04-24T19:04:52.482Z,97398.78
2023-04-24T19:07:20.114Z,97414.53
2023-04-24T19:09:47.041Z,97396.44
2023-04-24T19:12:13.707Z,97393.09
2023-04-24T19:14:40.354Z,97390.22
2023-04-24T19:17:10.017Z,97401.59
2023-04-24T19:19:38.902Z,97398.78
2023-04-24T19:22:07.541Z,97401.59
2023-04-24T19:24:34.401Z,97394.47
2023-04-24T19:27:01.640Z,97401.59
2023-04-24T19:29:28.677Z,97387.97
2023-04-24T19:31:57.838Z,97391.00
2023-04-24T19:34:25.413Z,97394.63
2023-04-24T19:36:52.081Z,97397.25
2023-04-24T19:39:19.100Z,97389.31
2023-04-24T19:41:45.891Z,97392.13
2023-04-24T19:44:12.724Z,97374.34
2023-04-24T19:46:39.939Z,97390.44
2023-04-24T19:49:07.554Z,97381.69
2023-04-24T19:51:34.131Z,97383.47
2023-04-24T19:54:01.139Z,97373.22
2023-04-24T19:56:27.807Z,97386.28
2023-04-24T19:58:54.545Z,97372.94
2023-04-24T20:01:21.645Z,97374.47
2023-04-24T20:03:48.474Z,97384.63
2023-04-24T20:06:15.438Z,97385.47
2023-04-24T20:08:42.770Z,97389.91
2023-04-24T20:11:09.595Z,97378.56
2023-04-24T20:13:36.332Z,97392.72
2023-04-24T20:16:04.492Z,97379.38
2023-04-24T20:18:31.181Z,97372.41
2023-04-24T20:20:59.603Z,97385.75
2023-04-24T20:23:29.727Z,97384.38
2023-04-24T20:25:59.058Z,97387.56
2023-04-24T20:28:30.372Z,97385.91
2023-04-24T20:30:58.382Z,97391.19
2023-04-24T20:33:28.681Z,97383.53
2023-04-24T20:35:55.873Z,97391.19
2023-04-24T20:38:22.874Z,97380.34
2023-04-24T20:40:57.811Z,97363.69
2023-04-24T20:43:28.727Z,97388.72
2023-04-24T20:45:56.338Z,97386.88
2023-04-24T20:48:22.906Z,97387.03
2023-04-24T20:50:50.252Z,97388.72
2023-04-24T20:53:17.740Z,97394.97
2023-04-24T20:55:44.349Z,97390.66
2023-04-24T20:58:11.171Z,97382.88
2023-04-24T21:00:37.946Z,97374.66
2023-04-24T21:03:07.292Z,97384.50
2023-04-24T21:05:33.978Z,97345.22
2023-04-24T21:08:00.609Z,97383.53
2023-04-24T21:10:27.222Z,97384.38
2023-04-24T21:12:53.917Z,97380.06
2023-04-24T21:15:20.699Z,97388.84
2023-04-24T21:17:47.430Z,97389.81
2023-04-24T21:20:14.123Z,97371.31
2023-04-24T21:22:40.858Z,97386.19
2023-04-24T21:25:08.529Z,97371.88
2023-04-24T21:27:36.214Z,97384.50
2023-04-24T21:30:04.646Z,97383.53
2023-04-24T21:32:31.259Z,97381.03
2023-04-24T21:34:59.541Z,97379.09
2023-04-24T21:37:26.914Z,97371.75
2023-04-24T21:39:53.548Z,97379.09
2023-04-24T21:42:20.186Z,97376.44
2023-04-24T21:44:46.858Z,97373.81
2023-04-24T21:47:13.369Z,97376.44
2023-04-24T21:49:39.990Z,97379.09
2023-04-24T21:52:06.565Z,97368.25
2023-04-24T21:54:33.227Z,97376.56
2023-04-24T21:57:02.189Z,97353.66
2023-04-24T21:59:29.988Z,97382.56
2023-04-24T22:01:56.652Z,97367.13
2023-04-24T22:04:24.134Z,97361.28
2023-04-24T22:06:53.229Z,97371.28
2023-04-24T22:09:20.291Z,97318.53
2023-04-24T22:11:47.150Z,97366.69
2023-04-24T22:14:14.676Z,97371.16
2023-04-24T22:16:41.852Z,97366.69
2023-04-24T22:19:09.238Z,97381.75
2023-04-24T22:21:36.384Z,97376.28
2023-04-24T22:24:03.217Z,97363.81
2023-04-24T22:26:29.776Z,97363.66
2023-04-24T22:28:59.419Z,97373.81
2023-04-24T22:31:26.085Z,97354.19
2023-04-24T22:33:52.963Z,97351.28
2023-04-24T22:36:19.943Z,97362.34
2023-04-24T22:38:46.519Z,97350.03
2023-04-24T22:41:14.746Z,97341.38
2023-04-24T22:43:41.342Z,97358.88
2023-04-24T22:46:08.006Z,97355.38
2023-04-24T22:48:34.751Z,97358.03
2023-04-24T22:51:01.570Z,97358.03
2023-04-24T22:53:28.914Z,97353.59
2023-04-24T22:55:56.444Z,97360.69
2023-04-24T22:58:23.054Z,97342.63
2023-04-24T23:00:49.702Z,97359.03
2023-04-24T23:03:16.759Z,97347.59
2023-04-24T23:05:43.540Z,97339.13
2023-04-24T23:08:10.319Z,97351.94
2023-04-24T23:10:37.047Z,97346.63
2023-04-24T23:13:03.630Z,97342.31
2023-04-24T23:15:31.178Z,97341.34
2023-04-24T23:17:57.805Z,97331.72
2023-04-24T23:20:24.496Z,97339.81
2023-04-24T23:22:51.277Z,97330.53
2023-04-24T23:25:18.088Z,97328.25
2023-04-24T23:27:44.607Z,97327.41
2023-04-24T23:30:11.631Z,97327.41
2023-04-24T23:32:38.309Z,97339.66
2023-04-24T23:35:06.363Z,97334.97
2023-04-24T23:37:32.887Z,97343.88
2023-04-24T23:39:59.554Z,97343.06
2023-04-24T23:42:26.101Z,97357.66
2023-04-24T23:44:52.675Z,97348.34
2023-04-24T23:47:19.221Z,97352.53
2023-04-24T23:49:45.879Z,97357.00
2023-04-24T23:52:12.397Z,97353.50
2023-04-24T23:54:39.004Z,97328.38
2023-04-24T23:57:05.612Z,97335.88
2023-04-24T23:59:32.197Z,97344.72
